Lacanau — FNKK — position and weather

sailwx.info

Track history (hours):
 
Tides and Currents Weather Stations Pressure Air Temp Water Temp Dewpoint Dewpoint Depression Visibility Wind Speed Wind Dir Waves Ship Positions

Lacanau

Last reported at 2017-Nov-19 06:10 UTC. Time now 2017-Nov-19 06:38 UTC.
Position N 14°34' W 061°06'.

Length 119 m; draft 5.3 m.

MMSI: 228330800.

Date/timePositionNaut miles runAvg speedWind from/ knotsBaromVisibWave heightAir tempDewpointWater temp
2017-Nov-19 06:10N 14°34' W 061°06'0 0.1
2017-Nov-19 05:52N 14°34' W 061°06'0 0.0
2017-Nov-19 02:22N 14°34' W 061°06'0 0.0
2017-Nov-19 01:49N 14°34' W 061°06'0 0.0
2017-Nov-19 01:28N 14°34' W 061°06'0 0.0
2017-Nov-19 00:55N 14°34' W 061°06'0 0.0
2017-Nov-18 23:04N 14°34' W 061°06'0 0.0
2017-Nov-18 22:40N 14°34' W 061°06'0 0.1
2017-Nov-18 22:09N 14°34' W 061°06'1 4.8
2017-Nov-18 21:55N 14°35' W 061°05'21 0.9
2017-Nov-17 23:38N 14°44' W 061°24'5411.8
2017-Nov-17 19:02N 15°37' W 061°34'212.5
2017-Nov-17 18:52N 15°39' W 061°33'2612.6
2017-Nov-17 16:50N 16°04' W 061°29'513.5
2017-Nov-17 16:29N 16°09' W 061°30'510.8
2017-Nov-17 16:00N 16°14' W 061°32'1 0.2
2017-Nov-17 11:25N 16°14' W 061°33'0 0.0
2017-Nov-16 17:04N 16°14' W 061°33'0 0.0
2017-Nov-16 06:05N 16°14' W 061°33'0 0.6
2017-Nov-16 05:59N 16°14' W 061°33'2 3.4
2017-Nov-16 05:30N 16°13' W 061°32'510.8
2017-Nov-16 05:00N 16°08' W 061°30'3112.7
2017-Nov-16 02:35N 15°37' W 061°33'  
2017-Nov-09 22:50N 14°34' W 061°07'310.0
2017-Nov-09 22:30N 14°34' W 061°04'  
Track history (hours):
 
Tides and Currents Weather Stations Pressure Air Temp Water Temp Dewpoint Dewpoint Depression Visibility Wind Speed Wind Dir Waves Ship Positions

Lacanau

Last reported at 2017-Nov-19 06:10 UTC. Time now 2017-Nov-19 06:38 UTC.
Position N 14°34' W 061°06'.

Length 119 m; draft 5.3 m.

MMSI: 228330800.

Date/timePositionNaut miles runAvg speedWind from/ knotsBaromVisibWave heightAir tempDewpointWater temp
2017-Nov-19 06:10N 14°34' W 061°06'0 0.1
2017-Nov-19 05:52N 14°34' W 061°06'0 0.0
2017-Nov-19 02:22N 14°34' W 061°06'0 0.0
2017-Nov-19 01:49N 14°34' W 061°06'0 0.0
2017-Nov-19 01:28N 14°34' W 061°06'0 0.0
2017-Nov-19 00:55N 14°34' W 061°06'0 0.0
2017-Nov-18 23:04N 14°34' W 061°06'0 0.0
2017-Nov-18 22:40N 14°34' W 061°06'0 0.1
2017-Nov-18 22:09N 14°34' W 061°06'1 4.8
2017-Nov-18 21:55N 14°35' W 061°05'21 0.9
2017-Nov-17 23:38N 14°44' W 061°24'5411.8
2017-Nov-17 19:02N 15°37' W 061°34'212.5
2017-Nov-17 18:52N 15°39' W 061°33'2612.6
2017-Nov-17 16:50N 16°04' W 061°29'513.5
2017-Nov-17 16:29N 16°09' W 061°30'510.8
2017-Nov-17 16:00N 16°14' W 061°32'1 0.2
2017-Nov-17 11:25N 16°14' W 061°33'0 0.0
2017-Nov-16 17:04N 16°14' W 061°33'0 0.0
2017-Nov-16 06:05N 16°14' W 061°33'0 0.6
2017-Nov-16 05:59N 16°14' W 061°33'2 3.4
2017-Nov-16 05:30N 16°13' W 061°32'510.8
2017-Nov-16 05:00N 16°08' W 061°30'3112.7
2017-Nov-16 02:35N 15°37' W 061°33'  
2017-Nov-09 22:50N 14°34' W 061°07'310.0
2017-Nov-09 22:30N 14°34' W 061°04'  

Dump ship's entire track history